sensor_id;sensor_type;location;lat;lon;timestamp;temperature;humidity
6758;DHT22;3416;53.074;8.822;2022-07-05T00:00:00;16.10;99.90
6758;DHT22;3416;53.074;8.822;2022-07-05T00:02:27;16.10;99.90
6758;DHT22;3416;53.074;8.822;2022-07-05T00:04:54;16.10;99.90
6758;DHT22;3416;53.074;8.822;2022-07-05T00:07:21;16.10;99.90
6758;DHT22;3416;53.074;8.822;2022-07-05T00:09:50;16.20;99.90
6758;DHT22;3416;53.074;8.822;2022-07-05T00:12:20;16.20;99.90
6758;DHT22;3416;53.074;8.822;2022-07-05T00:14:47;16.20;99.90
6758;DHT22;3416;53.074;8.822;2022-07-05T00:17:15;16.10;99.90
6758;DHT22;3416;53.074;8.822;2022-07-05T00:19:42;16.10;99.90
6758;DHT22;3416;53.074;8.822;2022-07-05T00:22:09;16.10;99.90
6758;DHT22;3416;53.074;8.822;2022-07-05T00:24:36;16.10;99.90
6758;DHT22;3416;53.074;8.822;2022-07-05T00:27:04;16.00;99.90
6758;DHT22;3416;53.074;8.822;2022-07-05T00:29:32;15.90;99.90
6758;DHT22;3416;53.074;8.822;2022-07-05T00:31:59;15.90;99.90
6758;DHT22;3416;53.074;8.822;2022-07-05T00:34:26;16.00;99.90
6758;DHT22;3416;53.074;8.822;2022-07-05T00:36:53;15.90;99.90
6758;DHT22;3416;53.074;8.822;2022-07-05T00:39:22;15.80;99.90
6758;DHT22;3416;53.074;8.822;2022-07-05T00:41:49;15.70;99.90
6758;DHT22;3416;53.074;8.822;2022-07-05T00:44:16;15.80;99.90
6758;DHT22;3416;53.074;8.822;2022-07-05T00:46:45;15.70;99.90
6758;DHT22;3416;53.074;8.822;2022-07-05T00:49:12;15.70;99.90
6758;DHT22;3416;53.074;8.822;2022-07-05T00:51:39;15.70;99.90
6758;DHT22;3416;53.074;8.822;2022-07-05T00:54:06;15.50;99.90
6758;DHT22;3416;53.074;8.822;2022-07-05T00:56:34;15.50;99.90
6758;DHT22;3416;53.074;8.822;2022-07-05T00:59:00;15.50;99.90
6758;DHT22;3416;53.074;8.822;2022-07-05T01:01:29;15.50;99.90
6758;DHT22;3416;53.074;8.822;2022-07-05T01:03:57;15.40;99.90
6758;DHT22;3416;53.074;8.822;2022-07-05T01:06:24;15.40;99.90
6758;DHT22;3416;53.074;8.822;2022-07-05T01:08:52;15.40;99.90
6758;DHT22;3416;53.074;8.822;2022-07-05T01:11:19;15.30;99.90
6758;DHT22;3416;53.074;8.822;2022-07-05T01:13:46;15.30;99.90
6758;DHT22;3416;53.074;8.822;2022-07-05T01:16:15;15.30;99.90
6758;DHT22;3416;53.074;8.822;2022-07-05T01:18:43;15.20;99.90
6758;DHT22;3416;53.074;8.822;2022-07-05T01:21:13;15.00;99.90
6758;DHT22;3416;53.074;8.822;2022-07-05T01:23:46;15.00;99.90
6758;DHT22;3416;53.074;8.822;2022-07-05T01:26:14;15.00;99.90
6758;DHT22;3416;53.074;8.822;2022-07-05T01:28:40;15.00;99.90
6758;DHT22;3416;53.074;8.822;2022-07-05T01:31:07;14.90;99.90
6758;DHT22;3416;53.074;8.822;2022-07-05T01:33:35;14.90;99.90
6758;DHT22;3416;53.074;8.822;2022-07-05T01:36:02;14.80;99.90
6758;DHT22;3416;53.074;8.822;2022-07-05T01:38:29;14.80;99.90
6758;DHT22;3416;53.074;8.822;2022-07-05T01:40:58;14.70;99.90
6758;DHT22;3416;53.074;8.822;2022-07-05T01:43:24;14.70;99.90
6758;DHT22;3416;53.074;8.822;2022-07-05T01:45:54;14.60;99.90
6758;DHT22;3416;53.074;8.822;2022-07-05T01:48:23;14.60;99.90
6758;DHT22;3416;53.074;8.822;2022-07-05T01:50:53;14.60;99.90
6758;DHT22;3416;53.074;8.822;2022-07-05T01:53:22;14.60;99.90
6758;DHT22;3416;53.074;8.822;2022-07-05T01:55:49;14.60;99.90
6758;DHT22;3416;53.074;8.822;2022-07-05T01:58:18;14.60;99.90
6758;DHT22;3416;53.074;8.822;2022-07-05T02:00:46;14.50;99.90
6758;DHT22;3416;53.074;8.822;2022-07-05T02:03:14;14.50;99.90
6758;DHT22;3416;53.074;8.822;2022-07-05T02:05:41;14.50;99.90
6758;DHT22;3416;53.074;8.822;2022-07-05T02:08:10;14.60;99.90
6758;DHT22;3416;53.074;8.822;2022-07-05T02:10:38;14.60;99.90
6758;DHT22;3416;53.074;8.822;2022-07-05T02:13:05;14.60;99.90
6758;DHT22;3416;53.074;8.822;2022-07-05T02:15:37;14.60;99.90
6758;DHT22;3416;53.074;8.822;2022-07-05T02:18:05;14.50;99.90
6758;DHT22;3416;53.074;8.822;2022-07-05T02:20:33;14.50;99.90
6758;DHT22;3416;53.074;8.822;2022-07-05T02:23:00;14.50;99.90
6758;DHT22;3416;53.074;8.822;2022-07-05T02:25:27;14.60;99.90
6758;DHT22;3416;53.074;8.822;2022-07-05T02:27:55;14.50;99.90
6758;DHT22;3416;53.074;8.822;2022-07-05T02:30:22;14.40;99.90
6758;DHT22;3416;53.074;8.822;2022-07-05T02:32:50;14.40;99.90
6758;DHT22;3416;53.074;8.822;2022-07-05T02:35:17;14.40;99.90
6758;DHT22;3416;53.074;8.822;2022-07-05T02:37:44;14.50;99.90
6758;DHT22;3416;53.074;8.822;2022-07-05T02:40:12;14.30;99.90
6758;DHT22;3416;53.074;8.822;2022-07-05T02:42:41;14.30;99.90
6758;DHT22;3416;53.074;8.822;2022-07-05T02:45:09;14.30;99.90
6758;DHT22;3416;53.074;8.822;2022-07-05T02:47:36;14.20;99.90
6758;DHT22;3416;53.074;8.822;2022-07-05T02:50:05;14.20;99.90
6758;DHT22;3416;53.074;8.822;2022-07-05T02:52:32;14.30;99.90
6758;DHT22;3416;53.074;8.822;2022-07-05T02:54:59;14.30;99.90
6758;DHT22;3416;53.074;8.822;2022-07-05T02:57:26;14.20;99.90
6758;DHT22;3416;53.074;8.822;2022-07-05T02:59:53;14.20;99.90
6758;DHT22;3416;53.074;8.822;2022-07-05T03:02:20;14.20;99.90
6758;DHT22;3416;53.074;8.822;2022-07-05T03:04:47;14.20;99.90
6758;DHT22;3416;53.074;8.822;2022-07-05T03:07:15;14.20;99.90
6758;DHT22;3416;53.074;8.822;2022-07-05T03:09:42;14.20;99.90
6758;DHT22;3416;53.074;8.822;2022-07-05T03:12:09;14.20;99.90
6758;DHT22;3416;53.074;8.822;2022-07-05T03:14:36;14.20;99.90
6758;DHT22;3416;53.074;8.822;2022-07-05T03:17:03;14.10;99.90
6758;DHT22;3416;53.074;8.822;2022-07-05T03:19:30;14.10;99.90
6758;DHT22;3416;53.074;8.822;2022-07-05T03:21:59;14.10;99.90
6758;DHT22;3416;53.074;8.822;2022-07-05T03:24:27;14.20;99.90
6758;DHT22;3416;53.074;8.822;2022-07-05T03:26:54;14.10;99.90
6758;DHT22;3416;53.074;8.822;2022-07-05T03:29:21;14.10;99.90
6758;DHT22;3416;53.074;8.822;2022-07-05T03:31:48;14.10;99.90
6758;DHT22;3416;53.074;8.822;2022-07-05T03:34:15;14.10;99.90
6758;DHT22;3416;53.074;8.822;2022-07-05T03:36:41;14.10;99.90
6758;DHT22;3416;53.074;8.822;2022-07-05T03:39:08;14.10;99.90
6758;DHT22;3416;53.074;8.822;2022-07-05T03:41:37;14.10;99.90
6758;DHT22;3416;53.074;8.822;2022-07-05T03:44:04;14.10;99.90
6758;DHT22;3416;53.074;8.822;2022-07-05T03:46:30;14.10;99.90
6758;DHT22;3416;53.074;8.822;2022-07-05T03:48:58;14.10;99.90
6758;DHT22;3416;53.074;8.822;2022-07-05T03:51:24;14.20;99.90
6758;DHT22;3416;53.074;8.822;2022-07-05T03:53:51;14.10;99.90
6758;DHT22;3416;53.074;8.822;2022-07-05T03:56:19;14.20;99.90
6758;DHT22;3416;53.074;8.822;2022-07-05T03:58:50;14.20;99.90
6758;DHT22;3416;53.074;8.822;2022-07-05T04:01:17;14.30;99.90
6758;DHT22;3416;53.074;8.822;2022-07-05T04:03:44;14.30;99.90
6758;DHT22;3416;53.074;8.822;2022-07-05T04:06:12;14.40;99.90
6758;DHT22;3416;53.074;8.822;2022-07-05T04:08:41;14.40;99.90
6758;DHT22;3416;53.074;8.822;2022-07-05T04:11:08;14.50;99.90
6758;DHT22;3416;53.074;8.822;2022-07-05T04:13:38;15.00;99.90
6758;DHT22;3416;53.074;8.822;2022-07-05T04:16:07;16.00;99.90
6758;DHT22;3416;53.074;8.822;2022-07-05T04:18:34;16.90;99.90
6758;DHT22;3416;53.074;8.822;2022-07-05T04:21:01;17.70;99.90
6758;DHT22;3416;53.074;8.822;2022-07-05T04:23:28;18.70;99.90
6758;DHT22;3416;53.074;8.822;2022-07-05T04:25:55;19.70;99.90
6758;DHT22;3416;53.074;8.822;2022-07-05T04:28:22;20.30;99.90
6758;DHT22;3416;53.074;8.822;2022-07-05T04:30:49;21.00;99.90
6758;DHT22;3416;53.074;8.822;2022-07-05T04:33:17;21.50;99.20
6758;DHT22;3416;53.074;8.822;2022-07-05T04:35:44;22.00;97.50
6758;DHT22;3416;53.074;8.822;2022-07-05T04:38:11;22.60;96.40
6758;DHT22;3416;53.074;8.822;2022-07-05T04:40:38;23.10;93.80
6758;DHT22;3416;53.074;8.822;2022-07-05T04:43:06;23.30;92.90
6758;DHT22;3416;53.074;8.822;2022-07-05T04:45:33;23.50;92.60
6758;DHT22;3416;53.074;8.822;2022-07-05T04:48:00;23.90;91.50
6758;DHT22;3416;53.074;8.822;2022-07-05T04:50:28;24.20;90.80
6758;DHT22;3416;53.074;8.822;2022-07-05T04:52:55;24.60;90.20
6758;DHT22;3416;53.074;8.822;2022-07-05T04:55:22;25.30;89.10
6758;DHT22;3416;53.074;8.822;2022-07-05T04:57:50;25.90;86.40
6758;DHT22;3416;53.074;8.822;2022-07-05T05:00:17;26.40;83.70
6758;DHT22;3416;53.074;8.822;2022-07-05T05:02:44;26.00;82.90
6758;DHT22;3416;53.074;8.822;2022-07-05T05:05:11;25.90;82.30
6758;DHT22;3416;53.074;8.822;2022-07-05T05:07:43;25.70;82.90
6758;DHT22;3416;53.074;8.822;2022-07-05T05:10:11;25.80;82.50
6758;DHT22;3416;53.074;8.822;2022-07-05T05:12:38;25.90;82.20
6758;DHT22;3416;53.074;8.822;2022-07-05T05:15:07;26.30;81.10
6758;DHT22;3416;53.074;8.822;2022-07-05T05:17:36;26.50;80.30
6758;DHT22;3416;53.074;8.822;2022-07-05T05:20:05;27.20;78.70
6758;DHT22;3416;53.074;8.822;2022-07-05T05:22:32;27.30;76.90
6758;DHT22;3416;53.074;8.822;2022-07-05T05:25:01;27.60;76.80
6758;DHT22;3416;53.074;8.822;2022-07-05T05:27:28;27.60;75.30
6758;DHT22;3416;53.074;8.822;2022-07-05T05:29:55;27.50;74.70
6758;DHT22;3416;53.074;8.822;2022-07-05T05:32:22;27.30;74.00
6758;DHT22;3416;53.074;8.822;2022-07-05T05:34:49;27.10;74.80
6758;DHT22;3416;53.074;8.822;2022-07-05T05:37:16;26.80;74.60
6758;DHT22;3416;53.074;8.822;2022-07-05T05:39:43;27.80;74.60
6758;DHT22;3416;53.074;8.822;2022-07-05T05:42:11;27.80;73.40
6758;DHT22;3416;53.074;8.822;2022-07-05T05:44:38;28.40;72.90
6758;DHT22;3416;53.074;8.822;2022-07-05T05:47:05;28.00;71.40
6758;DHT22;3416;53.074;8.822;2022-07-05T05:49:32;28.60;71.00
6758;DHT22;3416;53.074;8.822;2022-07-05T05:51:59;28.80;69.60
6758;DHT22;3416;53.074;8.822;2022-07-05T05:54:26;29.10;69.40
6758;DHT22;3416;53.074;8.822;2022-07-05T05:56:53;29.50;68.80
6758;DHT22;3416;53.074;8.822;2022-07-05T05:59:21;29.80;67.60
6758;DHT22;3416;53.074;8.822;2022-07-05T06:01:48;30.20;66.20
6758;DHT22;3416;53.074;8.822;2022-07-05T06:04:15;30.10;65.80
6758;DHT22;3416;53.074;8.822;2022-07-05T06:06:42;30.20;65.50
6758;DHT22;3416;53.074;8.822;2022-07-05T06:12:13;30.30;66.20
6758;DHT22;3416;53.074;8.822;2022-07-05T06:14:41;29.90;64.80
6758;DHT22;3416;53.074;8.822;2022-07-05T06:17:12;29.60;65.80
6758;DHT22;3416;53.074;8.822;2022-07-05T06:19:39;30.00;65.30
6758;DHT22;3416;53.074;8.822;2022-07-05T06:22:06;30.40;64.60
6758;DHT22;3416;53.074;8.822;2022-07-05T06:24:40;30.30;64.40
6758;DHT22;3416;53.074;8.822;2022-07-05T06:27:07;30.50;64.20
6758;DHT22;3416;53.074;8.822;2022-07-05T06:29:34;30.40;63.20
6758;DHT22;3416;53.074;8.822;2022-07-05T06:32:05;30.40;63.70
6758;DHT22;3416;53.074;8.822;2022-07-05T06:34:32;30.70;63.10
6758;DHT22;3416;53.074;8.822;2022-07-05T06:36:59;30.70;62.70
6758;DHT22;3416;53.074;8.822;2022-07-05T06:39:26;30.70;62.20
6758;DHT22;3416;53.074;8.822;2022-07-05T06:41:53;30.80;61.80
6758;DHT22;3416;53.074;8.822;2022-07-05T06:44:21;30.50;61.70
6758;DHT22;3416;53.074;8.822;2022-07-05T06:46:48;29.90;62.80
6758;DHT22;3416;53.074;8.822;2022-07-05T06:49:16;29.90;63.70
6758;DHT22;3416;53.074;8.822;2022-07-05T06:51:43;29.70;63.60
6758;DHT22;3416;53.074;8.822;2022-07-05T06:54:10;29.00;64.00
6758;DHT22;3416;53.074;8.822;2022-07-05T06:56:37;28.90;65.00
6758;DHT22;3416;53.074;8.822;2022-07-05T06:59:04;28.90;65.30
6758;DHT22;3416;53.074;8.822;2022-07-05T07:01:31;29.40;64.70
6758;DHT22;3416;53.074;8.822;2022-07-05T07:03:58;29.80;65.10
6758;DHT22;3416;53.074;8.822;2022-07-05T07:06:27;30.20;64.20
6758;DHT22;3416;53.074;8.822;2022-07-05T07:08:54;30.70;62.90
6758;DHT22;3416;53.074;8.822;2022-07-05T07:11:38;30.30;61.70
6758;DHT22;3416;53.074;8.822;2022-07-05T07:14:05;29.70;62.60
6758;DHT22;3416;53.074;8.822;2022-07-05T07:16:32;29.40;62.90
6758;DHT22;3416;53.074;8.822;2022-07-05T07:19:00;29.10;63.40
6758;DHT22;3416;53.074;8.822;2022-07-05T07:21:29;29.90;63.70
6758;DHT22;3416;53.074;8.822;2022-07-05T07:23:55;30.70;63.00
6758;DHT22;3416;53.074;8.822;2022-07-05T07:26:22;30.60;60.70
6758;DHT22;3416;53.074;8.822;2022-07-05T07:28:50;30.70;61.10
6758;DHT22;3416;53.074;8.822;2022-07-05T07:31:18;31.10;59.60
6758;DHT22;3416;53.074;8.822;2022-07-05T07:33:44;31.40;58.80
6758;DHT22;3416;53.074;8.822;2022-07-05T07:36:12;31.50;59.10
6758;DHT22;3416;53.074;8.822;2022-07-05T07:38:41;31.60;58.00
6758;DHT22;3416;53.074;8.822;2022-07-05T07:41:07;30.60;58.10
6758;DHT22;3416;53.074;8.822;2022-07-05T07:43:34;31.10;58.40
6758;DHT22;3416;53.074;8.822;2022-07-05T07:46:01;31.50;59.20
6758;DHT22;3416;53.074;8.822;2022-07-05T07:48:29;31.10;57.00
6758;DHT22;3416;53.074;8.822;2022-07-05T07:50:56;29.70;59.50
6758;DHT22;3416;53.074;8.822;2022-07-05T07:53:23;29.70;60.40
6758;DHT22;3416;53.074;8.822;2022-07-05T07:55:51;30.10;60.10
6758;DHT22;3416;53.074;8.822;2022-07-05T07:58:18;30.30;60.30
6758;DHT22;3416;53.074;8.822;2022-07-05T08:00:45;31.30;58.70
6758;DHT22;3416;53.074;8.822;2022-07-05T08:03:12;31.90;57.10
6758;DHT22;3416;53.074;8.822;2022-07-05T08:05:39;31.60;56.10
6758;DHT22;3416;53.074;8.822;2022-07-05T08:08:06;30.80;56.60
6758;DHT22;3416;53.074;8.822;2022-07-05T08:10:33;29.60;58.30
6758;DHT22;3416;53.074;8.822;2022-07-05T08:13:01;29.90;58.70
6758;DHT22;3416;53.074;8.822;2022-07-05T08:15:28;30.60;58.40
6758;DHT22;3416;53.074;8.822;2022-07-05T08:17:55;31.00;57.30
6758;DHT22;3416;53.074;8.822;2022-07-05T08:20:40;31.80;55.30
6758;DHT22;3416;53.074;8.822;2022-07-05T08:23:24;32.30;52.50
6758;DHT22;3416;53.074;8.822;2022-07-05T08:25:51;32.50;53.40
6758;DHT22;3416;53.074;8.822;2022-07-05T08:28:19;32.00;52.40
6758;DHT22;3416;53.074;8.822;2022-07-05T08:30:46;30.60;54.20
6758;DHT22;3416;53.074;8.822;2022-07-05T08:33:13;30.70;53.90
6758;DHT22;3416;53.074;8.822;2022-07-05T08:35:40;30.60;53.50
6758;DHT22;3416;53.074;8.822;2022-07-05T08:38:07;31.00;52.70
6758;DHT22;3416;53.074;8.822;2022-07-05T08:40:37;31.20;52.50
6758;DHT22;3416;53.074;8.822;2022-07-05T08:43:08;32.00;50.00
6758;DHT22;3416;53.074;8.822;2022-07-05T08:45:38;30.40;49.80
6758;DHT22;3416;53.074;8.822;2022-07-05T08:48:06;29.10;53.20
6758;DHT22;3416;53.074;8.822;2022-07-05T08:50:36;29.10;54.80
6758;DHT22;3416;53.074;8.822;2022-07-05T08:53:05;30.30;55.00
6758;DHT22;3416;53.074;8.822;2022-07-05T08:55:32;30.00;52.50
6758;DHT22;3416;53.074;8.822;2022-07-05T08:58:00;29.20;52.00
6758;DHT22;3416;53.074;8.822;2022-07-05T09:00:28;29.40;53.70
6758;DHT22;3416;53.074;8.822;2022-07-05T09:02:57;30.00;53.90
6758;DHT22;3416;53.074;8.822;2022-07-05T09:05:25;30.30;54.30
6758;DHT22;3416;53.074;8.822;2022-07-05T09:07:58;31.10;53.10
6758;DHT22;3416;53.074;8.822;2022-07-05T09:10:26;32.00;51.50
6758;DHT22;3416;53.074;8.822;2022-07-05T09:12:55;32.30;50.90
6758;DHT22;3416;53.074;8.822;2022-07-05T09:15:22;31.60;50.00
6758;DHT22;3416;53.074;8.822;2022-07-05T09:17:49;32.20;50.50
6758;DHT22;3416;53.074;8.822;2022-07-05T09:20:19;32.80;49.40
6758;DHT22;3416;53.074;8.822;2022-07-05T09:22:49;32.00;50.10
6758;DHT22;3416;53.074;8.822;2022-07-05T09:25:20;31.90;51.10
6758;DHT22;3416;53.074;8.822;2022-07-05T09:27:49;31.50;51.60
6758;DHT22;3416;53.074;8.822;2022-07-05T09:30:28;30.80;52.30
6758;DHT22;3416;53.074;8.822;2022-07-05T09:33:06;29.40;53.00
6758;DHT22;3416;53.074;8.822;2022-07-05T09:35:36;29.30;53.80
6758;DHT22;3416;53.074;8.822;2022-07-05T09:38:03;29.20;54.10
6758;DHT22;3416;53.074;8.822;2022-07-05T09:40:31;28.80;54.20
6758;DHT22;3416;53.074;8.822;2022-07-05T09:43:21;28.70;54.40
6758;DHT22;3416;53.074;8.822;2022-07-05T09:45:56;28.00;54.80
6758;DHT22;3416;53.074;8.822;2022-07-05T09:48:24;27.60;56.50
6758;DHT22;3416;53.074;8.822;2022-07-05T09:50:52;27.00;57.60
6758;DHT22;3416;53.074;8.822;2022-07-05T09:53:49;26.60;58.90
6758;DHT22;3416;53.074;8.822;2022-07-05T09:56:16;26.40;59.80
6758;DHT22;3416;53.074;8.822;2022-07-05T09:58:44;26.70;59.70
6758;DHT22;3416;53.074;8.822;2022-07-05T10:01:24;26.30;59.00
6758;DHT22;3416;53.074;8.822;2022-07-05T10:03:51;26.30;59.80
6758;DHT22;3416;53.074;8.822;2022-07-05T10:06:21;26.20;60.10
6758;DHT22;3416;53.074;8.822;2022-07-05T10:08:50;25.90;60.90
6758;DHT22;3416;53.074;8.822;2022-07-05T10:11:17;25.60;63.10
6758;DHT22;3416;53.074;8.822;2022-07-05T10:13:48;25.50;62.30
6758;DHT22;3416;53.074;8.822;2022-07-05T10:16:16;25.80;62.30
6758;DHT22;3416;53.074;8.822;2022-07-05T10:18:44;26.60;61.90
6758;DHT22;3416;53.074;8.822;2022-07-05T10:21:13;27.00;61.10
6758;DHT22;3416;53.074;8.822;2022-07-05T10:23:45;27.20;60.50
6758;DHT22;3416;53.074;8.822;2022-07-05T10:26:13;27.30;60.20
6758;DHT22;3416;53.074;8.822;2022-07-05T10:28:40;27.10;60.70
6758;DHT22;3416;53.074;8.822;2022-07-05T10:31:08;27.00;60.80
6758;DHT22;3416;53.074;8.822;2022-07-05T10:33:35;26.90;61.30
6758;DHT22;3416;53.074;8.822;2022-07-05T10:36:04;27.10;60.40
6758;DHT22;3416;53.074;8.822;2022-07-05T10:38:35;27.10;60.00
6758;DHT22;3416;53.074;8.822;2022-07-05T10:41:07;26.80;60.40
6758;DHT22;3416;53.074;8.822;2022-07-05T10:43:35;26.90;60.10
6758;DHT22;3416;53.074;8.822;2022-07-05T10:46:04;26.50;60.60
6758;DHT22;3416;53.074;8.822;2022-07-05T10:48:34;25.90;61.70
6758;DHT22;3416;53.074;8.822;2022-07-05T10:51:13;25.60;62.70
6758;DHT22;3416;53.074;8.822;2022-07-05T10:54:01;25.30;63.40
6758;DHT22;3416;53.074;8.822;2022-07-05T10:56:30;25.20;64.90
6758;DHT22;3416;53.074;8.822;2022-07-05T10:59:07;25.20;64.80
6758;DHT22;3416;53.074;8.822;2022-07-05T11:01:41;25.10;65.00
6758;DHT22;3416;53.074;8.822;2022-07-05T11:04:25;25.10;65.20
6758;DHT22;3416;53.074;8.822;2022-07-05T11:07:00;24.80;64.10
6758;DHT22;3416;53.074;8.822;2022-07-05T11:09:27;24.90;64.40
6758;DHT22;3416;53.074;8.822;2022-07-05T11:12:11;24.40;64.10
6758;DHT22;3416;53.074;8.822;2022-07-05T11:14:45;24.20;66.10
6758;DHT22;3416;53.074;8.822;2022-07-05T11:17:21;24.40;66.60
6758;DHT22;3416;53.074;8.822;2022-07-05T11:20:09;24.60;67.70
6758;DHT22;3416;53.074;8.822;2022-07-05T11:22:37;25.00;67.00
6758;DHT22;3416;53.074;8.822;2022-07-05T11:25:09;25.40;66.40
6758;DHT22;3416;53.074;8.822;2022-07-05T11:28:05;25.80;66.20
6758;DHT22;3416;53.074;8.822;2022-07-05T11:30:48;25.90;64.70
6758;DHT22;3416;53.074;8.822;2022-07-05T11:33:39;25.90;65.20
6758;DHT22;3416;53.074;8.822;2022-07-05T11:36:29;25.60;64.70
6758;DHT22;3416;53.074;8.822;2022-07-05T11:39:08;25.60;65.20
6758;DHT22;3416;53.074;8.822;2022-07-05T11:41:38;25.30;66.30
6758;DHT22;3416;53.074;8.822;2022-07-05T11:44:07;25.60;66.20
6758;DHT22;3416;53.074;8.822;2022-07-05T11:46:34;25.60;65.60
6758;DHT22;3416;53.074;8.822;2022-07-05T11:49:01;25.60;65.80
6758;DHT22;3416;53.074;8.822;2022-07-05T11:51:29;25.60;65.10
6758;DHT22;3416;53.074;8.822;2022-07-05T11:53:56;25.60;65.40
6758;DHT22;3416;53.074;8.822;2022-07-05T11:56:23;25.30;65.20
6758;DHT22;3416;53.074;8.822;2022-07-05T11:58:50;25.40;65.90
6758;DHT22;3416;53.074;8.822;2022-07-05T12:01:20;25.70;66.70
6758;DHT22;3416;53.074;8.822;2022-07-05T12:03:56;25.80;66.70
6758;DHT22;3416;53.074;8.822;2022-07-05T12:06:23;25.70;66.20
6758;DHT22;3416;53.074;8.822;2022-07-05T12:09:03;25.80;65.80
6758;DHT22;3416;53.074;8.822;2022-07-05T12:11:30;25.10;65.60
6758;DHT22;3416;53.074;8.822;2022-07-05T12:14:24;25.00;66.10
6758;DHT22;3416;53.074;8.822;2022-07-05T12:17:12;24.90;66.50
6758;DHT22;3416;53.074;8.822;2022-07-05T12:19:39;25.30;66.90
6758;DHT22;3416;53.074;8.822;2022-07-05T12:22:06;25.60;67.00
6758;DHT22;3416;53.074;8.822;2022-07-05T12:24:34;25.90;66.80
6758;DHT22;3416;53.074;8.822;2022-07-05T12:27:01;26.10;66.40
6758;DHT22;3416;53.074;8.822;2022-07-05T12:29:29;26.10;66.20
6758;DHT22;3416;53.074;8.822;2022-07-05T12:32:00;25.90;66.40
6758;DHT22;3416;53.074;8.822;2022-07-05T12:34:29;25.10;66.40
6758;DHT22;3416;53.074;8.822;2022-07-05T12:36:57;24.80;66.90
6758;DHT22;3416;53.074;8.822;2022-07-05T12:39:24;24.50;66.30
6758;DHT22;3416;53.074;8.822;2022-07-05T12:41:51;24.50;65.90
6758;DHT22;3416;53.074;8.822;2022-07-05T12:44:19;24.70;66.70
6758;DHT22;3416;53.074;8.822;2022-07-05T12:46:47;24.80;66.30
6758;DHT22;3416;53.074;8.822;2022-07-05T12:49:18;24.80;66.30
6758;DHT22;3416;53.074;8.822;2022-07-05T12:51:46;24.80;66.80
6758;DHT22;3416;53.074;8.822;2022-07-05T12:54:20;24.90;66.90
6758;DHT22;3416;53.074;8.822;2022-07-05T12:57:05;25.20;67.30
6758;DHT22;3416;53.074;8.822;2022-07-05T13:00:01;25.20;67.50
6758;DHT22;3416;53.074;8.822;2022-07-05T13:02:39;25.10;68.00
6758;DHT22;3416;53.074;8.822;2022-07-05T13:05:08;25.10;68.30
6758;DHT22;3416;53.074;8.822;2022-07-05T13:07:43;24.90;68.40
6758;DHT22;3416;53.074;8.822;2022-07-05T13:10:15;24.80;69.20
6758;DHT22;3416;53.074;8.822;2022-07-05T13:12:42;25.00;69.40
6758;DHT22;3416;53.074;8.822;2022-07-05T13:15:09;25.20;68.00
6758;DHT22;3416;53.074;8.822;2022-07-05T13:17:37;25.50;66.30
6758;DHT22;3416;53.074;8.822;2022-07-05T13:20:05;25.50;65.00
6758;DHT22;3416;53.074;8.822;2022-07-05T13:22:32;25.30;66.30
6758;DHT22;3416;53.074;8.822;2022-07-05T13:25:00;25.10;66.20
6758;DHT22;3416;53.074;8.822;2022-07-05T13:27:27;25.00;67.60
6758;DHT22;3416;53.074;8.822;2022-07-05T13:29:56;25.10;68.90
6758;DHT22;3416;53.074;8.822;2022-07-05T13:32:23;25.30;68.70
6758;DHT22;3416;53.074;8.822;2022-07-05T13:34:50;25.20;68.50
6758;DHT22;3416;53.074;8.822;2022-07-05T13:37:18;25.40;69.10
6758;DHT22;3416;53.074;8.822;2022-07-05T13:39:45;25.20;68.50
6758;DHT22;3416;53.074;8.822;2022-07-05T13:42:13;25.10;69.50
6758;DHT22;3416;53.074;8.822;2022-07-05T13:44:40;25.00;69.50
6758;DHT22;3416;53.074;8.822;2022-07-05T13:47:07;24.80;69.00
6758;DHT22;3416;53.074;8.822;2022-07-05T13:49:36;24.50;69.00
6758;DHT22;3416;53.074;8.822;2022-07-05T13:52:06;24.30;69.00
6758;DHT22;3416;53.074;8.822;2022-07-05T13:54:33;24.30;69.40
6758;DHT22;3416;53.074;8.822;2022-07-05T13:57:01;24.40;68.80
6758;DHT22;3416;53.074;8.822;2022-07-05T13:59:29;24.40;68.40
6758;DHT22;3416;53.074;8.822;2022-07-05T14:01:56;24.00;69.00
6758;DHT22;3416;53.074;8.822;2022-07-05T14:04:24;24.00;69.30
6758;DHT22;3416;53.074;8.822;2022-07-05T14:06:55;24.00;68.70
6758;DHT22;3416;53.074;8.822;2022-07-05T14:09:22;24.00;68.60
6758;DHT22;3416;53.074;8.822;2022-07-05T14:11:52;24.10;70.30
6758;DHT22;3416;53.074;8.822;2022-07-05T14:14:19;24.30;71.70
6758;DHT22;3416;53.074;8.822;2022-07-05T14:16:47;24.70;72.30
6758;DHT22;3416;53.074;8.822;2022-07-05T14:19:14;24.80;71.60
6758;DHT22;3416;53.074;8.822;2022-07-05T14:21:41;24.90;71.30
6758;DHT22;3416;53.074;8.822;2022-07-05T14:24:10;24.80;71.30
6758;DHT22;3416;53.074;8.822;2022-07-05T14:26:40;24.70;72.00
6758;DHT22;3416;53.074;8.822;2022-07-05T14:29:07;24.60;72.40
6758;DHT22;3416;53.074;8.822;2022-07-05T14:31:34;24.50;73.20
6758;DHT22;3416;53.074;8.822;2022-07-05T14:34:04;24.40;73.70
6758;DHT22;3416;53.074;8.822;2022-07-05T14:36:31;24.20;72.90
6758;DHT22;3416;53.074;8.822;2022-07-05T14:38:58;24.00;73.40
6758;DHT22;3416;53.074;8.822;2022-07-05T14:41:26;23.80;73.50
6758;DHT22;3416;53.074;8.822;2022-07-05T14:43:54;23.80;74.00
6758;DHT22;3416;53.074;8.822;2022-07-05T14:46:21;23.90;74.20
6758;DHT22;3416;53.074;8.822;2022-07-05T14:48:48;23.90;73.20
6758;DHT22;3416;53.074;8.822;2022-07-05T14:51:17;23.90;73.40
6758;DHT22;3416;53.074;8.822;2022-07-05T14:53:44;23.80;73.00
6758;DHT22;3416;53.074;8.822;2022-07-05T14:56:12;23.80;73.20
6758;DHT22;3416;53.074;8.822;2022-07-05T14:58:39;23.90;73.70
6758;DHT22;3416;53.074;8.822;2022-07-05T15:01:07;23.80;73.50
6758;DHT22;3416;53.074;8.822;2022-07-05T15:03:33;23.60;75.60
6758;DHT22;3416;53.074;8.822;2022-07-05T15:06:02;23.50;79.00
6758;DHT22;3416;53.074;8.822;2022-07-05T15:08:31;23.30;81.50
6758;DHT22;3416;53.074;8.822;2022-07-05T15:10:58;23.30;83.70
6758;DHT22;3416;53.074;8.822;2022-07-05T15:13:25;23.10;85.60
6758;DHT22;3416;53.074;8.822;2022-07-05T15:15:52;23.10;86.70
6758;DHT22;3416;53.074;8.822;2022-07-05T15:18:19;23.10;87.00
6758;DHT22;3416;53.074;8.822;2022-07-05T15:20:46;23.20;86.10
6758;DHT22;3416;53.074;8.822;2022-07-05T15:23:13;23.20;86.60
6758;DHT22;3416;53.074;8.822;2022-07-05T15:25:41;23.40;86.20
6758;DHT22;3416;53.074;8.822;2022-07-05T15:28:08;23.40;85.80
6758;DHT22;3416;53.074;8.822;2022-07-05T15:30:36;23.40;85.90
6758;DHT22;3416;53.074;8.822;2022-07-05T15:33:03;23.20;85.20
6758;DHT22;3416;53.074;8.822;2022-07-05T15:35:33;23.10;86.40
6758;DHT22;3416;53.074;8.822;2022-07-05T15:38:00;23.10;86.70
6758;DHT22;3416;53.074;8.822;2022-07-05T15:40:27;23.00;87.30
6758;DHT22;3416;53.074;8.822;2022-07-05T15:43:13;22.90;87.90
6758;DHT22;3416;53.074;8.822;2022-07-05T15:45:39;22.90;88.60
6758;DHT22;3416;53.074;8.822;2022-07-05T15:48:08;22.90;89.20
6758;DHT22;3416;53.074;8.822;2022-07-05T15:50:35;22.80;89.40
6758;DHT22;3416;53.074;8.822;2022-07-05T15:53:02;22.70;89.80
6758;DHT22;3416;53.074;8.822;2022-07-05T15:55:28;22.60;90.10
6758;DHT22;3416;53.074;8.822;2022-07-05T15:57:55;22.50;90.70
6758;DHT22;3416;53.074;8.822;2022-07-05T16:00:24;22.40;91.20
6758;DHT22;3416;53.074;8.822;2022-07-05T16:02:51;22.30;91.50
6758;DHT22;3416;53.074;8.822;2022-07-05T16:05:18;22.40;91.30
6758;DHT22;3416;53.074;8.822;2022-07-05T16:07:45;22.40;91.00
6758;DHT22;3416;53.074;8.822;2022-07-05T16:10:12;22.30;91.10
6758;DHT22;3416;53.074;8.822;2022-07-05T16:12:39;22.20;90.60
6758;DHT22;3416;53.074;8.822;2022-07-05T16:15:06;22.10;90.60